Time;durP1;ratioP1;P1;durP2;ratioP2;P2;SDS_P1;SDS_P2;PMS_P1;PMS_P2;Temp;Humidity;BMP_temperature;BMP_pressure;BME280_temperature;BME280_humidity;BME280_pressure;Samples;Min_cycle;Max_cycle;Signal;HPM_P1;HPM_P2
2023/01/14 00:02:24;;;;;;;4.45;1.85;;;;;;;27.54;29.05;99041.47;5025788;28;20411;-70
2023/01/14 00:04:49;;;;;;;4.93;1.92;;;;;;;27.58;28.93;99044.34;5032740;28;20033;-69
2023/01/14 00:07:16;;;;;;;4.43;1.88;;;;;;;27.47;29.05;99038.44;5027731;28;20060;-69
2023/01/14 00:09:42;;;;;;;4.47;1.85;;;;;;;27.48;29.17;99045.53;5030042;28;20021;-69
2023/01/14 00:12:08;;;;;;;3.55;1.60;;;;;;;27.49;29.01;99058.13;5031975;28;20429;-68
2023/01/14 00:14:34;;;;;;;4.93;1.98;;;;;;;27.47;29.11;99054.91;5032078;28;20112;-68
2023/01/14 00:17:00;;;;;;;3.67;1.50;;;;;;;27.55;29.05;99056.00;5025219;28;20056;-69
2023/01/14 00:19:25;;;;;;;5.72;1.92;;;;;;;27.54;29.07;99057.94;5032389;28;20024;-69
2023/01/14 00:21:52;;;;;;;4.80;1.90;;;;;;;27.51;28.90;99053.09;5033691;28;20539;-68
2023/01/14 00:24:19;;;;;;;5.50;2.03;;;;;;;27.52;29.03;99051.97;5034959;28;20029;-68
2023/01/14 00:26:44;;;;;;;5.30;2.13;;;;;;;27.57;29.08;99052.91;5030063;28;20028;-68
2023/01/14 00:29:18;;;;;;;4.22;1.80;;;;;;;27.51;29.33;99049.53;5033176;28;20029;-70
2023/01/14 00:31:43;;;;;;;5.53;1.77;;;;;;;27.49;29.03;99058.13;5038731;28;20040;-68
2023/01/14 00:34:09;;;;;;;4.57;2.08;;;;;;;27.48;28.96;99047.50;5035569;28;20029;-68
2023/01/14 00:36:35;;;;;;;3.20;1.40;;;;;;;27.46;29.02;99047.81;5022269;28;20052;-68
2023/01/14 00:39:00;;;;;;;5.15;1.63;;;;;;;27.44;29.07;99049.28;5036306;28;20025;-69
2023/01/14 00:41:26;;;;;;;4.20;1.88;;;;;;;27.46;29.36;99052.50;5033731;28;20036;-68
2023/01/14 00:43:53;;;;;;;5.35;1.80;;;;;;;27.47;29.01;99049.41;5034637;28;20104;-68
2023/01/14 00:46:21;;;;;;;4.90;2.00;;;;;;;27.44;29.10;99050.09;5034313;28;21647;-69
2023/01/14 00:48:47;;;;;;;5.28;1.92;;;;;;;27.42;28.98;99052.34;5036516;28;20024;-69
2023/01/14 00:51:13;;;;;;;5.32;1.88;;;;;;;27.41;28.89;99045.28;5030076;28;20352;-69
2023/01/14 00:53:39;;;;;;;4.47;1.77;;;;;;;27.43;28.92;99037.50;5034486;28;20392;-69
2023/01/14 00:56:05;;;;;;;4.32;1.63;;;;;;;27.44;28.86;99028.16;5036387;28;20158;-70
2023/01/14 00:58:31;;;;;;;3.72;1.83;;;;;;;27.39;28.98;99036.56;5030285;28;20029;-70
2023/01/14 01:00:57;;;;;;;4.93;1.90;;;;;;;27.41;28.92;99048.00;5031757;28;20353;-69
2023/01/14 01:03:22;;;;;;;4.28;1.85;;;;;;;27.42;28.84;99049.59;5029136;28;20040;-70
2023/01/14 01:05:48;;;;;;;4.32;1.58;;;;;;;27.42;28.67;99060.56;5029042;28;20442;-70
2023/01/14 01:08:16;;;;;;;4.78;1.77;;;;;;;27.44;28.78;99052.00;5035421;28;20050;-70
2023/01/14 01:10:43;;;;;;;3.92;1.75;;;;;;;27.36;28.75;99059.19;5037936;28;20163;-69
2023/01/14 01:13:09;;;;;;;3.72;1.58;;;;;;;27.43;28.62;99059.44;5028773;28;20188;-69
2023/01/14 01:15:35;;;;;;;5.18;1.73;;;;;;;27.39;28.85;99047.53;5032605;28;20021;-68
2023/01/14 01:18:01;;;;;;;2.97;1.50;;;;;;;27.39;28.86;99042.06;5034816;28;20518;-70
2023/01/14 01:20:27;;;;;;;5.10;1.90;;;;;;;27.38;28.37;99043.19;5034254;28;20371;-69
2023/01/14 01:22:53;;;;;;;4.28;1.70;;;;;;;27.42;28.80;99046.84;5026844;28;20021;-69
2023/01/14 01:25:19;;;;;;;4.97;1.58;;;;;;;27.41;28.72;99048.00;5033912;28;20115;-70
2023/01/14 01:27:45;;;;;;;3.05;1.60;;;;;;;27.35;28.66;99058.38;5036984;28;20099;-70
2023/01/14 01:30:11;;;;;;;4.38;1.77;;;;;;;27.36;28.45;99059.19;5033494;28;20108;-70
2023/01/14 01:32:37;;;;;;;5.25;1.92;;;;;;;27.33;28.88;99055.16;5026896;28;20036;-69
2023/01/14 01:35:03;;;;;;;3.72;1.55;;;;;;;27.38;28.95;99056.09;5034439;28;20462;-69
2023/01/14 01:37:28;;;;;;;5.03;1.50;;;;;;;27.40;29.01;99054.63;5035583;28;20025;-68
2023/01/14 01:39:54;;;;;;;4.13;1.73;;;;;;;27.39;28.76;99049.47;5020631;28;20032;-69
2023/01/14 01:42:23;;;;;;;4.63;1.70;;;;;;;27.41;28.79;99058.19;5029184;28;20234;-68
2023/01/14 01:44:48;;;;;;;3.72;1.75;;;;;;;27.41;28.59;99045.28;5035025;28;20024;-69
2023/01/14 01:47:15;;;;;;;4.10;1.58;;;;;;;27.39;28.70;99047.53;5034759;28;20578;-68
2023/01/14 01:49:40;;;;;;;2.88;1.52;;;;;;;27.39;28.53;99035.75;5008450;28;20016;-69
2023/01/14 01:52:39;;;;;;;4.07;1.70;;;;;;;27.32;28.62;99044.50;5031655;28;20447;-68
2023/01/14 01:55:08;;;;;;;4.93;1.65;;;;;;;27.35;28.63;99052.06;5028998;28;20369;-68
2023/01/14 01:57:33;;;;;;;3.17;1.60;;;;;;;27.36;28.80;99045.47;5031169;28;20107;-68
2023/01/14 02:00:01;;;;;;;5.43;1.63;;;;;;;27.36;28.76;99037.22;5030233;28;20026;-68
2023/01/14 02:02:27;;;;;;;4.50;1.77;;;;;;;27.39;28.61;99042.06;5032856;28;20104;-68
2023/01/14 02:04:53;;;;;;;4.68;1.70;;;;;;;27.33;28.82;99033.19;5033636;28;20152;-69
2023/01/14 02:07:21;;;;;;;3.58;1.58;;;;;;;27.38;28.48;99037.69;5030006;28;20118;-69
2023/01/14 02:09:48;;;;;;;2.97;1.38;;;;;;;27.34;28.58;99039.50;5032182;28;20021;-68
2023/01/14 02:12:15;;;;;;;4.20;1.80;;;;;;;27.35;28.61;99038.34;5035080;28;20513;-68
2023/01/14 02:14:51;;;;;;;4.47;1.80;;;;;;;27.36;28.79;99042.72;5035762;28;20372;-68
2023/01/14 02:17:38;;;;;;;4.35;1.77;;;;;;;27.39;28.54;99042.06;5021011;28;20549;-69
2023/01/14 02:20:21;;;;;;;3.28;1.75;;;;;;;27.37;28.66;99036.06;5034155;28;20431;-68
2023/01/14 02:23:08;;;;;;;4.18;1.70;;;;;;;27.39;28.46;99044.81;5018232;28;20044;-69
2023/01/14 02:26:29;;;;;;;3.42;1.52;;;;;;;27.40;28.58;99040.91;5034507;28;20035;-69
2023/01/14 02:29:32;;;;;;;4.57;2.20;;;;;;;27.37;28.37;99041.56;5000879;28;20157;-69
2023/01/14 02:32:00;;;;;;;3.47;1.35;;;;;;;27.34;28.63;99045.78;5026309;28;20316;-68
2023/01/14 02:34:46;;;;;;;4.63;1.80;;;;;;;27.38;28.56;99045.94;5036504;28;20059;-68
2023/01/14 02:37:22;;;;;;;5.65;2.00;;;;;;;27.32;28.55;99045.31;5032215;28;20512;-68
2023/01/14 02:39:56;;;;;;;2.75;1.60;;;;;;;27.35;28.48;99049.31;5013061;28;20182;-67
2023/01/14 02:45:15;;;;;;;4.90;1.73;;;;;;;27.30;28.53;99053.09;5032693;28;20120;-69
2023/01/14 02:47:40;;;;;;;4.60;1.77;;;;;;;27.34;28.45;99037.56;5032822;28;20033;-69
2023/01/14 02:50:06;;;;;;;3.55;1.67;;;;;;;27.30;28.49;99033.88;5024034;28;20093;-68
2023/01/14 02:52:32;;;;;;;2.78;1.63;;;;;;;27.30;28.50;99038.56;5025998;28;20244;-68
2023/01/14 02:55:00;;;;;;;5.82;1.88;;;;;;;27.34;28.31;99045.00;5023998;28;20116;-67
2023/01/14 02:57:40;;;;;;;4.18;2.00;;;;;;;27.31;28.49;99040.97;5021355;28;20484;-69
2023/01/14 03:00:50;;;;;;;4.43;1.88;;;;;;;27.34;28.45;99045.78;5036473;28;20063;-68
2023/01/14 03:03:22;;;;;;;3.13;1.45;;;;;;;27.30;28.54;99050.34;4995425;28;20060;-68
2023/01/14 03:06:20;;;;;;;4.47;1.70;;;;;;;27.32;28.36;99052.72;5034189;28;20086;-68
2023/01/14 03:09:01;;;;;;;3.85;1.55;;;;;;;27.34;28.39;99045.00;5029745;28;20383;-67
2023/01/14 03:11:37;;;;;;;3.33;1.60;;;;;;;27.35;28.36;99046.59;5032693;28;20419;-68
2023/01/14 03:14:03;;;;;;;4.00;1.67;;;;;;;27.23;28.73;99052.75;5031451;28;20025;-67
2023/01/14 03:16:40;;;;;;;4.82;1.75;;;;;;;27.22;28.47;99053.13;5033846;28;20029;-68
2023/01/14 03:19:26;;;;;;;3.65;1.75;;;;;;;27.31;28.37;99062.13;5032697;28;21875;-67
2023/01/14 03:21:53;;;;;;;4.70;1.83;;;;;;;27.26;28.32;99060.31;5030053;28;20445;-67
2023/01/14 03:24:29;;;;;;;3.15;1.50;;;;;;;27.28;28.40;99060.81;5015898;28;20025;-67
2023/01/14 03:26:55;;;;;;;2.60;1.20;;;;;;;27.27;28.33;99058.38;5032104;28;20048;-67
2023/01/14 03:29:28;;;;;;;2.95;1.20;;;;;;;27.25;28.48;99052.41;5034998;28;20024;-67
2023/01/14 03:31:58;;;;;;;2.70;1.40;;;;;;;27.26;28.42;99059.53;5035168;28;20072;-67
2023/01/14 03:34:26;;;;;;;2.65;1.40;;;;;;;27.27;28.35;99055.63;5022337;28;20025;-69
2023/01/14 03:36:53;;;;;;;3.30;1.40;;;;;;;27.20;28.16;99039.72;5030929;28;20502;-69
2023/01/14 03:39:21;;;;;;;2.15;1.30;;;;;;;27.28;28.34;99051.81;5031194;28;20031;-68
2023/01/14 03:44:46;;;;;;;2.95;1.33;;;;;;;27.25;28.16;99046.94;5010068;28;20529;-68
2023/01/14 03:47:12;;;;;;;2.40;1.48;;;;;;;27.33;28.16;99054.34;5028989;28;20334;-68
2023/01/14 03:49:38;;;;;;;3.03;1.63;;;;;;;27.27;28.24;99042.75;5034934;28;20033;-69
2023/01/14 03:52:45;;;;;;;3.10;1.48;;;;;;;27.29;28.21;99045.19;5015325;28;20025;-69
2023/01/14 03:55:21;;;;;;;2.10;1.23;;;;;;;27.22;28.24;99044.88;5030505;28;20032;-69
2023/01/14 03:58:16;;;;;;;1.95;1.33;;;;;;;27.23;28.32;99049.22;5034650;28;20490;-67
2023/01/14 04:00:56;;;;;;;1.75;1.30;;;;;;;27.26;28.28;99052.09;5017691;28;20044;-69
2023/01/14 04:03:23;;;;;;;2.30;1.30;;;;;;;27.29;28.25;99047.94;5040075;28;20021;-69
2023/01/14 04:05:49;;;;;;;2.25;1.58;;;;;;;27.22;28.32;99044.88;5021237;28;20037;-69
2023/01/14 04:08:17;;;;;;;2.58;1.50;;;;;;;27.25;28.61;99046.94;5022078;28;20110;-68
2023/01/14 04:10:42;;;;;;;2.15;1.38;;;;;;;27.17;28.49;99041.19;5035740;28;20053;-70
2023/01/14 04:15:52;;;;;;;;;;;;;;;27.25;28.14;99041.44;5039575;28;20036;-67
2023/01/14 04:18:18;;;;;;;2.30;1.50;;;;;;;27.20;28.18;99033.41;5030154;28;19925;-69
2023/01/14 04:20:43;;;;;;;3.03;1.52;;;;;;;27.15;28.19;99037.97;5029791;28;20445;-70
2023/01/14 04:23:09;;;;;;;1.80;1.20;;;;;;;27.22;28.17;99045.69;5026190;28;20575;-69
2023/01/14 04:25:34;;;;;;;2.95;1.50;;;;;;;27.16;28.30;99039.59;5034915;28;20036;-68
2023/01/14 04:28:00;;;;;;;3.65;1.70;;;;;;;27.19;28.24;99037.31;5037640;28;20526;-69
2023/01/14 04:30:26;;;;;;;3.85;1.52;;;;;;;27.22;28.26;99036.66;5030697;28;20056;-69
2023/01/14 04:32:53;;;;;;;3.35;1.60;;;;;;;27.10;28.24;99024.44;5032874;28;20428;-69
2023/01/14 04:35:18;;;;;;;3.42;1.50;;;;;;;27.12;28.31;99029.59;5036482;28;20037;-69
2023/01/14 04:37:45;;;;;;;2.60;1.35;;;;;;;27.14;28.32;99036.34;5034974;28;20507;-68
2023/01/14 04:40:11;;;;;;;3.58;1.63;;;;;;;27.17;28.11;99032.16;5023256;28;20475;-70
2023/01/14 04:42:37;;;;;;;2.72;1.73;;;;;;;27.23;28.32;99038.25;5030418;28;20033;-69
2023/01/14 04:45:03;;;;;;;2.55;1.45;;;;;;;27.17;28.28;99035.69;5038476;28;20158;-68
2023/01/14 04:47:29;;;;;;;2.53;1.50;;;;;;;27.18;28.36;99041.97;5032450;28;20076;-68
2023/01/14 04:49:55;;;;;;;3.13;1.88;;;;;;;27.11;28.30;99031.56;5036966;28;20484;-68
2023/01/14 04:52:22;;;;;;;2.83;1.52;;;;;;;27.17;28.29;99030.22;5034450;28;20052;-68
2023/01/14 04:54:48;;;;;;;3.13;1.70;;;;;;;27.16;28.38;99045.06;5035239;28;20059;-68
2023/01/14 04:57:14;;;;;;;2.65;1.70;;;;;;;27.21;28.23;99044.06;5028270;28;20029;-68
2023/01/14 04:59:39;;;;;;;2.38;1.60;;;;;;;27.18;28.27;99047.47;5038214;28;20035;-68
2023/01/14 05:02:05;;;;;;;2.92;1.80;;;;;;;27.20;28.43;99052.63;5031761;28;20515;-68
2023/01/14 05:04:31;;;;;;;3.17;1.60;;;;;;;27.18;28.19;99050.19;5036521;28;20547;-68
2023/01/14 05:06:57;;;;;;;2.80;1.70;;;;;;;27.14;28.23;99050.06;5034767;28;20028;-68
2023/01/14 05:09:23;;;;;;;3.65;1.80;;;;;;;27.17;28.24;99038.44;5037091;28;20037;-68
2023/01/14 05:11:48;;;;;;;3.13;1.75;;;;;;;27.13;28.32;99045.72;5022637;28;20067;-68
2023/01/14 05:14:14;;;;;;;3.78;1.92;;;;;;;27.14;28.17;99044.56;5034579;28;20051;-68
2023/01/14 05:16:39;;;;;;;3.90;1.70;;;;;;;27.14;28.18;99044.56;5035415;28;20039;-68
2023/01/14 05:19:05;;;;;;;3.83;1.80;;;;;;;27.16;28.11;99042.34;5030228;28;20182;-68
2023/01/14 05:21:31;;;;;;;3.65;1.92;;;;;;;27.19;28.08;99046.34;5032038;28;20025;-69
2023/01/14 05:23:56;;;;;;;3.75;1.85;;;;;;;27.10;28.14;99029.13;5034837;28;20555;-68
2023/01/14 05:26:22;;;;;;;2.53;1.38;;;;;;;27.14;28.12;99038.28;5035461;28;20094;-69
2023/01/14 05:28:48;;;;;;;3.78;1.70;;;;;;;27.12;28.17;99038.63;5029189;28;20041;-68
2023/01/14 05:31:13;;;;;;;5.13;2.10;;;;;;;27.15;28.24;99048.94;5033993;28;20028;-69
2023/01/14 05:33:39;;;;;;;4.05;2.00;;;;;;;27.07;28.29;99043.50;5034581;28;20035;-69
2023/01/14 05:36:05;;;;;;;2.67;1.73;;;;;;;27.11;28.21;99039.78;5027813;28;20120;-69
2023/01/14 05:38:31;;;;;;;2.13;1.70;;;;;;;27.10;28.25;99035.41;5032941;28;20096;-68
2023/01/14 05:40:56;;;;;;;5.15;2.25;;;;;;;27.13;28.29;99034.75;5035008;28;20074;-69
2023/01/14 05:46:07;;;;;;;2.83;1.70;;;;;;;27.08;28.24;99037.69;5029460;28;20553;-68
2023/01/14 05:48:33;;;;;;;3.33;1.52;;;;;;;27.12;28.13;99038.63;5033658;28;20111;-68
2023/01/14 05:50:59;;;;;;;3.80;1.73;;;;;;;27.15;28.37;99045.41;5030306;28;20469;-68
2023/01/14 05:53:26;;;;;;;2.97;1.45;;;;;;;27.06;28.25;99034.47;5033376;28;20033;-68
2023/01/14 05:55:53;;;;;;;4.20;1.80;;;;;;;27.16;28.15;99038.75;5035331;28;20017;-69
2023/01/14 05:58:18;;;;;;;3.97;1.92;;;;;;;27.12;28.05;99033.13;5027811;28;20424;-68
2023/01/14 06:06:34;;;;;;;3.45;1.67;;;;;;;27.15;27.90;99028.94;5024204;28;20090;-68
2023/01/14 06:09:03;;;;;;;3.35;1.52;;;;;;;27.05;28.10;99021.91;5034457;28;20071;-68
2023/01/14 06:11:29;;;;;;;2.50;1.73;;;;;;;27.13;28.13;99028.44;5034383;28;20033;-67
2023/01/14 06:13:57;;;;;;;3.35;1.63;;;;;;;27.09;28.11;99036.53;5026607;28;20027;-68
2023/01/14 06:16:26;;;;;;;2.83;1.52;;;;;;;27.12;28.00;99035.88;5032505;28;20071;-67
2023/01/14 06:18:56;;;;;;;2.92;1.55;;;;;;;27.10;27.94;99032.69;5036701;28;20112;-67
2023/01/14 06:21:31;;;;;;;2.30;1.90;;;;;;;27.03;28.11;99026.91;5035066;28;20029;-67
2023/01/14 06:23:57;;;;;;;2.72;1.67;;;;;;;27.06;28.14;99039.97;5030321;28;20024;-67
2023/01/14 06:26:32;;;;;;;2.35;1.50;;;;;;;27.04;28.19;99033.19;5028743;28;20518;-68
2023/01/14 06:28:58;;;;;;;3.20;1.88;;;;;;;27.05;28.03;99032.88;5033972;28;20047;-67
2023/01/14 06:31:24;;;;;;;2.25;1.50;;;;;;;27.07;28.14;99035.28;5035612;28;20095;-67
2023/01/14 06:33:50;;;;;;;4.28;1.90;;;;;;;27.01;28.36;99015.47;5034491;28;20507;-67
2023/01/14 06:36:16;;;;;;;2.85;1.63;;;;;;;27.07;28.08;99035.28;5031268;28;20508;-67
2023/01/14 06:38:41;;;;;;;2.55;1.52;;;;;;;27.08;27.76;99034.94;5034978;28;20033;-67
2023/01/14 06:41:08;;;;;;;4.03;1.80;;;;;;;27.07;28.00;99036.06;5033678;28;20603;-66
2023/01/14 06:43:34;;;;;;;1.50;1.33;;;;;;;27.10;27.94;99038.16;5032165;28;20032;-66
2023/01/14 06:46:00;;;;;;;2.45;1.40;;;;;;;27.11;27.91;99036.22;5034739;28;20473;-67
2023/01/14 06:48:26;;;;;;;1.77;1.35;;;;;;;27.01;28.11;99031.09;5015455;28;20633;-66
2023/01/14 06:50:52;;;;;;;2.67;1.60;;;;;;;27.08;28.06;99025.91;5025071;28;20021;-68
2023/01/14 06:53:18;;;;;;;2.67;1.40;;;;;;;27.06;28.02;99018.03;5031305;28;20025;-66
2023/01/14 06:55:44;;;;;;;2.25;1.48;;;;;;;27.08;27.99;99018.50;5031083;28;20066;-67
2023/01/14 06:58:10;;;;;;;3.42;1.50;;;;;;;27.02;28.11;99019.81;5034581;28;20481;-67
2023/01/14 07:00:36;;;;;;;2.58;1.35;;;;;;;27.09;27.98;99022.81;5026317;28;20359;-68
2023/01/14 07:03:01;;;;;;;2.28;1.40;;;;;;;27.03;28.03;99018.69;5021891;28;20059;-67
2023/01/14 07:05:27;;;;;;;2.58;1.42;;;;;;;27.04;27.99;99025.75;5033660;28;20143;-68
2023/01/14 07:07:53;;;;;;;1.73;1.30;;;;;;;26.99;28.13;99023.22;5035486;28;20029;-67
2023/01/14 07:10:19;;;;;;;2.40;1.23;;;;;;;27.01;28.00;99034.66;5023990;28;20028;-67
2023/01/14 07:12:48;;;;;;;1.60;1.25;;;;;;;27.07;27.96;99027.84;5024626;28;20151;-67
2023/01/14 07:15:15;;;;;;;1.92;1.20;;;;;;;27.00;27.91;99024.81;5023652;28;20448;-66
2023/01/14 07:17:40;;;;;;;2.05;1.35;;;;;;;27.03;27.98;99042.53;5025484;28;20025;-67
2023/01/14 07:20:10;;;;;;;2.17;1.30;;;;;;;27.06;28.00;99039.13;5031358;28;20027;-67
2023/01/14 07:22:35;;;;;;;2.25;1.25;;;;;;;27.02;28.03;99039.00;5029251;28;20477;-67
2023/01/14 07:25:01;;;;;;;1.75;1.30;;;;;;;27.06;28.07;99039.13;5031337;28;20029;-67
2023/01/14 07:27:30;;;;;;;1.40;1.20;;;;;;;27.03;27.89;99037.06;5031904;28;20171;-67
2023/01/14 07:29:56;;;;;;;1.77;1.30;;;;;;;27.00;27.96;99041.28;5033884;28;20032;-67
2023/01/14 07:32:22;;;;;;;1.42;1.10;;;;;;;27.01;27.97;99039.31;5027483;28;20520;-67
2023/01/14 07:34:48;;;;;;;1.45;1.20;;;;;;;27.02;27.97;99041.75;5032449;28;20124;-67
2023/01/14 07:37:13;;;;;;;1.50;1.10;;;;;;;27.01;27.85;99042.91;5036545;28;20131;-67
2023/01/14 07:39:39;;;;;;;1.63;0.98;;;;;;;27.05;27.96;99035.59;5037214;28;20033;-67
2023/01/14 07:42:05;;;;;;;2.05;1.25;;;;;;;27.10;27.54;99048.34;5023655;28;20016;-66
2023/01/14 07:44:32;;;;;;;1.15;0.95;;;;;;;27.05;27.82;99043.81;5034771;28;20032;-66
2023/01/14 07:46:58;;;;;;;1.70;1.17;;;;;;;27.05;27.97;99037.56;5036180;28;20056;-67
2023/01/14 07:49:24;;;;;;;1.20;1.00;;;;;;;27.01;28.00;99031.94;5036891;28;20492;-66
2023/01/14 07:51:50;;;;;;;1.30;0.95;;;;;;;27.00;28.04;99035.00;5033523;28;20480;-68
2023/01/14 07:54:15;;;;;;;2.10;1.10;;;;;;;27.04;27.82;99035.94;5034902;28;20028;-69
2023/01/14 07:56:41;;;;;;;1.98;1.30;;;;;;;27.01;27.83;99036.59;5036621;28;20040;-68
2023/01/14 07:59:07;;;;;;;1.38;0.93;;;;;;;27.05;27.87;99035.59;5035081;28;20029;-68
2023/01/14 08:01:33;;;;;;;1.00;0.90;;;;;;;27.03;27.94;99037.06;5024226;28;20025;-68
2023/01/14 08:03:58;;;;;;;0.80;0.80;;;;;;;27.02;27.81;99039.00;5040656;28;20032;-67
2023/01/14 08:06:24;;;;;;;1.25;1.05;;;;;;;27.00;27.92;99040.47;5036836;28;20047;-68
2023/01/14 08:08:50;;;;;;;1.10;0.80;;;;;;;27.05;27.95;99041.09;5039390;28;20394;-67
2023/01/14 08:11:15;;;;;;;1.65;1.08;;;;;;;26.98;27.98;99030.63;5030440;28;20108;-68
2023/01/14 08:13:41;;;;;;;1.23;0.80;;;;;;;27.05;28.03;99038.34;5035243;28;20543;-68
2023/01/14 08:16:09;;;;;;;1.13;0.90;;;;;;;27.00;28.03;99046.75;5035082;28;20375;-67
2023/01/14 08:18:35;;;;;;;0.85;0.80;;;;;;;27.02;27.82;99041.75;5033988;28;20339;-66
2023/01/14 08:21:06;;;;;;;1.20;0.73;;;;;;;26.99;27.85;99050.63;5025629;28;20075;-68
2023/01/14 08:23:33;;;;;;;0.60;0.60;;;;;;;26.96;27.91;99046.63;5035059;28;20375;-68
2023/01/14 08:26:02;;;;;;;0.60;0.60;;;;;;;26.98;28.00;99052.56;5039758;28;20029;-68
2023/01/14 08:28:28;;;;;;;1.05;0.80;;;;;;;27.03;27.83;99057.06;5023046;28;20079;-67
2023/01/14 08:31:06;;;;;;;1.23;1.00;;;;;;;27.02;27.83;99046.44;5002601;28;20025;-67
2023/01/14 08:33:32;;;;;;;0.80;0.63;;;;;;;27.04;27.81;99042.22;5035270;28;20052;-66
2023/01/14 08:36:09;;;;;;;1.55;0.80;;;;;;;27.04;27.96;99046.91;5033832;28;20428;-68
2023/01/14 08:38:40;;;;;;;0.70;0.70;;;;;;;27.00;27.84;99041.28;5030382;28;20032;-66
2023/01/14 08:41:06;;;;;;;0.60;0.60;;;;;;;27.00;27.70;99041.28;5028711;28;20086;-67
2023/01/14 08:43:32;;;;;;;0.60;0.60;;;;;;;27.02;27.82;99047.22;5030190;28;20021;-67
2023/01/14 08:46:01;;;;;;;0.70;0.50;;;;;;;26.97;27.83;99044.66;5029858;28;20126;-67
2023/01/14 08:48:27;;;;;;;0.82;0.50;;;;;;;26.96;27.79;99045.81;5031640;28;20105;-67
2023/01/14 08:50:53;;;;;;;1.63;0.88;;;;;;;27.01;28.05;99042.91;5038402;28;20028;-68
2023/01/14 08:53:19;;;;;;;1.27;0.70;;;;;;;26.99;27.84;99047.88;5037113;28;20033;-67
2023/01/14 08:55:45;;;;;;;0.65;0.65;;;;;;;26.97;27.78;99047.41;5036478;28;20380;-68
2023/01/14 08:58:10;;;;;;;0.73;0.70;;;;;;;27.00;27.83;99051.44;5038496;28;20658;-67
2023/01/14 09:00:36;;;;;;;1.10;0.63;;;;;;;27.04;27.70;99053.19;5036680;28;20617;-67
2023/01/14 09:03:02;;;;;;;0.70;0.70;;;;;;;27.01;27.72;99053.88;5035116;28;20021;-67
2023/01/14 09:05:27;;;;;;;1.40;0.80;;;;;;;26.98;27.71;99049.03;5039382;28;20039;-67
2023/01/14 09:18:54;;;;;;;0.90;0.70;;;;;;;26.98;27.77;99057.25;5033855;28;20075;-68
2023/01/14 09:21:20;;;;;;;1.50;0.75;;;;;;;26.99;27.59;99050.63;5037781;28;20021;-67
2023/01/14 09:23:46;;;;;;;0.60;0.60;;;;;;;26.94;27.83;99059.84;5035335;28;20025;-67
2023/01/14 09:26:12;;;;;;;1.55;0.90;;;;;;;26.99;27.72;99061.59;5028648;28;20085;-67
2023/01/14 09:28:37;;;;;;;1.00;0.90;;;;;;;26.96;27.79;99059.53;5031714;28;20041;-68
2023/01/14 09:31:03;;;;;;;0.95;0.60;;;;;;;26.97;27.83;99052.91;5033986;28;20712;-67
2023/01/14 09:33:29;;;;;;;1.10;0.80;;;;;;;26.95;27.79;99052.44;5031377;28;20025;-67
2023/01/14 09:35:54;;;;;;;0.75;0.65;;;;;;;27.01;27.66;99044.81;5031310;28;20104;-67
2023/01/14 09:38:20;;;;;;;0.68;0.60;;;;;;;26.98;27.72;99043.56;5037011;28;20552;-68
2023/01/14 09:40:46;;;;;;;0.68;0.60;;;;;;;26.97;27.72;99047.41;5035479;28;20162;-67
2023/01/14 09:43:19;;;;;;;0.70;0.63;;;;;;;27.00;27.75;99035.00;5033872;28;20463;-67
2023/01/14 09:45:45;;;;;;;1.10;0.70;;;;;;;26.96;27.86;99041.13;5035624;28;20197;-67
2023/01/14 09:48:15;;;;;;;0.45;0.45;;;;;;;27.04;27.54;99039.47;5030581;28;20029;-68
2023/01/14 09:50:46;;;;;;;1.00;0.60;;;;;;;26.98;27.88;99030.63;5028959;28;20380;-67
2023/01/14 09:54:02;;;;;;;0.88;0.60;;;;;;;27.01;27.76;99034.66;5025121;28;20499;-68
2023/01/14 09:56:35;;;;;;;0.70;0.70;;;;;;;26.96;27.72;99029.38;4941885;28;20532;-68
2023/01/14 09:59:06;;;;;;;0.90;0.70;;;;;;;26.91;27.67;99030.34;4946499;28;20140;-68
2023/01/14 10:01:54;;;;;;;0.93;0.65;;;;;;;26.95;27.67;99034.03;4976021;28;20483;-70
2023/01/14 10:04:26;;;;;;;0.60;0.60;;;;;;;26.96;27.63;99026.63;5027424;28;20104;-67
2023/01/14 10:06:53;;;;;;;0.60;0.60;;;;;;;26.95;27.67;99025.00;5025226;28;20036;-68
2023/01/14 10:09:47;;;;;;;0.63;0.63;;;;;;;26.96;27.67;99019.19;5013916;28;20510;-68
2023/01/14 10:12:37;;;;;;;0.50;0.50;;;;;;;26.98;27.56;99027.09;5030904;28;20041;-68
2023/01/14 10:15:28;;;;;;;0.60;0.57;;;;;;;27.02;27.66;99016.28;5026315;28;20043;-68
2023/01/14 10:18:00;;;;;;;0.80;0.60;;;;;;;26.90;27.55;99003.28;5027315;28;20025;-68
2023/01/14 10:20:30;;;;;;;0.47;0.47;;;;;;;26.97;27.66;99014.50;5025358;28;20047;-68
2023/01/14 10:23:11;;;;;;;0.70;0.50;;;;;;;26.97;27.77;99003.56;5026075;28;20029;-69
2023/01/14 10:25:36;;;;;;;0.93;0.63;;;;;;;26.90;27.70;99003.28;5014060;28;20033;-67
2023/01/14 10:28:02;;;;;;;1.35;0.75;;;;;;;26.87;27.97;99001.19;5028408;28;20032;-67
2023/01/14 10:36:46;;;;;;;6.18;1.13;;;;;;;19.77;41.24;99018.13;5079003;27;20398;-28
2023/01/14 10:39:12;;;;;;;1.08;0.88;;;;;;;19.74;40.52;99017.84;5082767;28;20341;-30
2023/01/14 10:41:50;;;;;;;1.05;0.80;;;;;;;19.83;40.69;99010.75;5085418;28;20029;-28
2023/01/14 10:44:27;;;;;;;2.22;1.08;;;;;;;19.91;40.35;99012.06;5085707;28;20349;-31
2023/01/14 10:46:58;;;;;;;3.25;1.20;;;;;;;19.93;39.98;99002.56;5083616;28;20118;-31
2023/01/14 10:49:38;;;;;;;1.90;1.00;;;;;;;19.98;40.07;99005.22;5085892;28;20118;-31
2023/01/14 10:52:26;;;;;;;3.00;1.10;;;;;;;20.06;39.81;99004.63;5086246;28;20024;-36
2023/01/14 10:55:11;;;;;;;2.92;0.77;;;;;;;20.08;39.90;99002.44;5082933;28;20032;-30
2023/01/14 10:57:59;;;;;;;1.88;1.17;;;;;;;20.30;39.88;98998.47;5078731;28;20111;-30
2023/01/14 11:00:37;;;;;;;2.30;1.10;;;;;;;20.29;39.65;98996.81;5082316;28;20027;-33
2023/01/14 11:03:08;;;;;;;1.45;0.82;;;;;;;20.23;39.89;98995.25;5084424;28;20043;-36
2023/01/14 11:05:35;;;;;;;2.53;0.90;;;;;;;20.30;39.36;98989.50;5072050;28;20221;-36
2023/01/14 11:08:25;;;;;;;6.90;1.05;;;;;;;20.26;39.21;98991.97;5085730;28;20032;-34
2023/01/14 11:11:10;;;;;;;3.30;1.13;;;;;;;20.26;39.56;98986.53;5087996;28;20118;-41
2023/01/14 11:13:41;;;;;;;12.00;1.40;;;;;;;20.28;39.29;98984.34;5087593;28;20024;-38
2023/01/14 11:16:29;;;;;;;3.80;0.90;;;;;;;20.28;39.87;98978.91;5077746;28;20032;-36
2023/01/14 11:19:12;;;;;;;4.38;1.10;;;;;;;20.27;40.08;98982.75;5089953;28;20047;-36
2023/01/14 11:21:45;;;;;;;6.15;0.95;;;;;;;20.24;40.26;98972.47;5081263;28;20092;-37
2023/01/14 11:24:29;;;;;;;2.85;0.90;;;;;;;20.27;39.66;98971.91;5085016;28;20028;-38
2023/01/14 11:27:14;;;;;;;3.13;1.00;;;;;;;20.30;40.35;98970.50;5082407;28;20410;-36
2023/01/14 11:29:56;;;;;;;6.00;1.10;;;;;;;20.29;40.11;98969.69;5085280;28;20028;-38
2023/01/14 11:32:35;;;;;;;6.78;1.23;;;;;;;20.27;40.48;98972.69;5085187;28;20192;-37
2023/01/14 11:35:06;;;;;;;4.95;1.08;;;;;;;20.29;40.42;98975.13;5085630;28;20063;-35
2023/01/14 11:37:35;;;;;;;5.30;1.05;;;;;;;20.31;40.40;98961.28;5081691;28;20505;-35
2023/01/14 11:40:01;;;;;;;6.05;1.15;;;;;;;20.37;40.43;98971.78;5085915;28;20034;-35
2023/01/14 11:42:26;;;;;;;5.70;0.90;;;;;;;20.32;41.59;98969.13;5081994;28;20487;-30
2023/01/14 11:45:16;;;;;;;4.55;0.90;;;;;;;20.34;41.55;98960.72;5085024;28;20038;-35
2023/01/14 11:47:49;;;;;;;7.20;1.00;;;;;;;20.36;40.94;98969.38;5067191;28;20089;-35
2023/01/14 11:50:32;;;;;;;2.58;1.10;;;;;;;20.33;40.76;98959.09;5068921;28;20081;-33
2023/01/14 11:53:04;;;;;;;5.30;0.98;;;;;;;20.35;40.88;98952.28;5065075;28;20032;-37
2023/01/14 11:55:37;;;;;;;11.80;1.40;;;;;;;20.49;42.04;98949.69;5068827;28;20032;-40
2023/01/14 11:58:32;;;;;;;7.88;1.30;;;;;;;20.21;41.25;98949.44;5063181;28;20057;-33
2023/01/14 12:01:05;;;;;;;3.45;0.82;;;;;;;20.12;41.16;98936.78;5057329;28;20040;-50
2023/01/14 12:03:34;;;;;;;4.50;1.00;;;;;;;20.18;41.00;98947.28;5063101;28;20077;-45
2023/01/14 12:06:10;;;;;;;6.40;1.40;;;;;;;20.18;40.92;98944.59;5060809;28;20031;-43
2023/01/14 12:08:35;;;;;;;6.07;1.20;;;;;;;20.23;40.39;98949.97;5065750;28;20031;-40
2023/01/14 12:11:01;;;;;;;1.95;1.10;;;;;;;20.27;40.13;98942.06;5057719;28;20024;-38
2023/01/14 12:16:59;;;;;;;2.33;0.90;;;;;;;20.31;40.25;98940.38;5073989;28;20051;-39
2023/01/14 12:19:40;;;;;;;2.25;1.00;;;;;;;20.40;39.69;98941.38;5077592;28;20027;-38
2023/01/14 12:22:15;;;;;;;1.25;0.90;;;;;;;20.42;39.84;98930.22;5055350;28;20509;-42
2023/01/14 12:24:58;;;;;;;1.60;0.93;;;;;;;20.40;39.71;98937.84;5070588;28;20027;-36
2023/01/14 12:27:44;;;;;;;2.20;1.00;;;;;;;20.42;39.58;98925.63;5073587;28;20020;-38